Pays
Station

 

Conditions  météo  pour  International Falls, Falls International Airport  -  Etats-Unis    Etats-Unis

  
19 °C
    
 
 

METAR pour International Falls, Falls International Airport :

KINL 232155Z AUTO 25007KT 220V280 10SM CLR 19/M01 A2993 RMK AO2 SLP139 T01891006

 

Voici le bulletin pour International Falls, Falls International Airport - Etats-Unis.
 
Le bulletin a été fait il y a 36 minutes, à 21:55 UTC .
Le vent soufflait à la vitesse de 3.6 mètres par seconde de Ouest/Sud-ouest (250°), variant entre Sud-ouest (220°) et Ouest (280°).
 
La température était de 19 °C, avec un point de rosée à -1 °C.
La pression atmosphérique était de 1014 hPa.
L'humidité relative était de 25.8%.
 
Le ciel était clair.
 
La visibilité globale était de 16.1 kilomètres.
 

 
 
 

Pays :   A   B   C   D   E   F   G   H   I   J   K   L   M   N   O   P   Q   R   S   T   U   V   W   Y   Z

 

Partenaires :  Info Météo avec Met'info
Météo Marine avec MeteoMarine.net
Infos Site  |  Infos Légales  |  Crédits  |  Confidentialité
Contactez-nous  |  Ajouter aux favoris
© 2013-2019 METAR - Tous droits réservés